createdAt,value
2023-02-11T00:02:01.931Z,1.41
2023-02-11T00:04:29.761Z,1.40
2023-02-11T00:06:59.175Z,1.53
2023-02-11T00:09:27.419Z,1.56
2023-02-11T00:11:55.020Z,1.73
2023-02-11T00:14:23.104Z,1.63
2023-02-11T00:16:51.085Z,1.83
2023-02-11T00:19:18.991Z,1.97
2023-02-11T00:21:46.580Z,2.04
2023-02-11T00:24:16.185Z,2.04
2023-02-11T00:26:43.817Z,2.01
2023-02-11T00:29:14.169Z,1.78
2023-02-11T00:31:41.944Z,1.60
2023-02-11T00:34:10.048Z,1.73
2023-02-11T00:36:37.579Z,1.97
2023-02-11T00:39:05.755Z,1.97
2023-02-11T00:41:34.997Z,1.94
2023-02-11T00:44:03.724Z,2.00
2023-02-11T00:46:31.758Z,1.87
2023-02-11T00:48:59.598Z,1.96
2023-02-11T00:51:28.930Z,2.03
2023-02-11T00:53:57.404Z,2.08
2023-02-11T00:56:25.375Z,2.08
2023-02-11T00:58:55.118Z,2.21
2023-02-11T01:01:23.198Z,2.09
2023-02-11T01:03:51.526Z,2.02
2023-02-11T01:06:19.080Z,1.98
2023-02-11T01:08:47.457Z,1.81
2023-02-11T01:11:18.135Z,1.90
2023-02-11T01:13:47.885Z,1.97
2023-02-11T01:16:18.180Z,1.85
2023-02-11T01:18:46.668Z,1.86
2023-02-11T01:21:14.345Z,1.63
2023-02-11T01:23:42.616Z,1.72
2023-02-11T01:26:12.275Z,1.81
2023-02-11T01:28:40.293Z,1.72
2023-02-11T01:31:08.108Z,1.73
2023-02-11T01:33:37.730Z,1.79
2023-02-11T01:36:07.353Z,1.92
2023-02-11T01:38:36.141Z,1.91
2023-02-11T01:41:06.340Z,1.87
2023-02-11T01:43:38.288Z,1.96
2023-02-11T01:46:20.376Z,1.88
2023-02-11T01:48:53.344Z,1.92
2023-02-11T01:51:24.995Z,2.00
2023-02-11T01:53:54.220Z,2.04
2023-02-11T01:56:24.151Z,2.17
2023-02-11T01:58:55.720Z,2.15
2023-02-11T02:01:28.332Z,1.95
2023-02-11T02:04:01.826Z,1.81
2023-02-11T02:06:34.615Z,2.00
2023-02-11T02:09:06.655Z,1.95
2023-02-11T02:11:34.435Z,2.04
2023-02-11T02:14:02.507Z,2.08
2023-02-11T02:16:33.475Z,2.11
2023-02-11T02:19:24.995Z,2.23
2023-02-11T02:22:16.945Z,2.16
2023-02-11T02:25:17.431Z,2.11
2023-02-11T02:27:55.473Z,2.01
2023-02-11T02:30:50.389Z,1.94
2023-02-11T02:33:38.248Z,2.00
2023-02-11T02:36:14.816Z,2.05
2023-02-11T02:38:50.903Z,2.10
2023-02-11T02:41:23.280Z,2.19
2023-02-11T02:43:51.886Z,2.21
2023-02-11T02:46:22.905Z,2.05
2023-02-11T02:48:53.618Z,2.26
2023-02-11T02:51:59.036Z,2.08
2023-02-11T02:54:51.876Z,2.09
2023-02-11T02:57:29.844Z,2.09
2023-02-11T03:00:09.653Z,2.22
2023-02-11T03:02:47.680Z,2.22
2023-02-11T03:05:22.846Z,2.25
2023-02-11T03:07:57.036Z,2.16
2023-02-11T03:10:29.137Z,2.13
2023-02-11T03:12:58.246Z,2.36
2023-02-11T03:15:28.551Z,2.18
2023-02-11T03:18:00.628Z,2.26
2023-02-11T03:20:33.277Z,2.20
2023-02-11T03:23:06.233Z,2.27
2023-02-11T03:25:38.211Z,2.47
2023-02-11T03:28:13.716Z,2.33
2023-02-11T03:30:48.259Z,2.11
2023-02-11T03:33:24.160Z,2.25
2023-02-11T03:35:56.805Z,2.27
2023-02-11T03:38:30.986Z,2.26
2023-02-11T03:41:00.729Z,2.30
2023-02-11T03:43:34.101Z,2.29
2023-02-11T03:46:03.642Z,2.39
2023-02-11T03:48:36.410Z,2.43
2023-02-11T03:51:09.409Z,2.36
2023-02-11T03:53:41.029Z,2.33
2023-02-11T03:56:12.068Z,2.29
2023-02-11T03:58:40.006Z,2.32
2023-02-11T04:01:07.879Z,2.23
2023-02-11T04:03:35.985Z,2.28
2023-02-11T04:06:05.514Z,2.29
2023-02-11T04:08:33.494Z,2.29
2023-02-11T04:11:00.998Z,2.41
2023-02-11T04:13:29.368Z,2.51
2023-02-11T04:15:56.979Z,2.31
2023-02-11T04:18:24.922Z,2.18
2023-02-11T04:20:52.489Z,2.17
2023-02-11T04:23:21.965Z,2.23
2023-02-11T04:25:51.753Z,2.15
2023-02-11T04:28:20.000Z,2.14
2023-02-11T04:30:49.586Z,2.16
2023-02-11T04:33:17.622Z,2.24
2023-02-11T04:35:45.444Z,2.19
2023-02-11T04:38:13.583Z,2.33
2023-02-11T04:40:42.967Z,2.39
2023-02-11T04:43:10.905Z,2.37
2023-02-11T04:45:38.702Z,2.26
2023-02-11T04:48:06.724Z,1.95
2023-02-11T04:50:34.285Z,2.08
2023-02-11T04:53:02.247Z,2.13
2023-02-11T04:55:29.987Z,2.24
2023-02-11T04:57:59.371Z,2.11
2023-02-11T05:00:26.972Z,2.02
2023-02-11T05:02:54.953Z,2.22
2023-02-11T05:05:22.706Z,2.24
2023-02-11T05:07:50.643Z,2.16
2023-02-11T05:10:18.226Z,2.05
2023-02-11T05:12:48.290Z,2.03
2023-02-11T05:15:17.559Z,2.10
2023-02-11T05:17:45.550Z,2.07
2023-02-11T05:20:13.468Z,1.96
2023-02-11T05:22:41.700Z,1.91
2023-02-11T05:25:09.291Z,1.90
2023-02-11T05:27:38.831Z,1.99
2023-02-11T05:30:07.568Z,2.01
2023-02-11T05:32:37.081Z,1.87
2023-02-11T05:35:05.049Z,1.91
2023-02-11T05:37:33.092Z,2.00
2023-02-11T05:40:00.660Z,2.10
2023-02-11T05:42:28.621Z,1.99
2023-02-11T05:44:56.162Z,2.11
2023-02-11T05:47:24.023Z,2.18
2023-02-11T05:49:53.397Z,2.31
2023-02-11T05:52:21.527Z,2.38
2023-02-11T05:54:49.132Z,2.45
2023-02-11T05:57:17.530Z,2.28
2023-02-11T05:59:45.074Z,2.45
2023-02-11T06:02:13.013Z,2.48
2023-02-11T06:04:40.640Z,2.56
2023-02-11T06:07:10.190Z,2.52
2023-02-11T06:09:37.659Z,2.45
2023-02-11T06:12:06.221Z,2.47
2023-02-11T06:14:34.037Z,2.48
2023-02-11T06:17:01.863Z,2.71
2023-02-11T06:19:29.643Z,2.86
2023-02-11T06:21:57.724Z,2.75
2023-02-11T06:24:50.956Z,2.83
2023-02-11T06:27:14.848Z,2.77
2023-02-11T06:29:42.342Z,2.86
2023-02-11T06:32:28.141Z,2.90
2023-02-11T06:34:57.867Z,2.83
2023-02-11T06:37:25.608Z,3.07
2023-02-11T06:39:54.660Z,3.17
2023-02-11T06:42:22.598Z,3.23
2023-02-11T06:44:50.125Z,3.05
2023-02-11T06:47:18.136Z,3.04
2023-02-11T06:49:46.277Z,2.91
2023-02-11T06:52:14.278Z,2.90
2023-02-11T06:54:41.799Z,3.09
2023-02-11T06:57:11.369Z,3.13
2023-02-11T06:59:38.926Z,3.13
2023-02-11T07:02:09.484Z,3.28
2023-02-11T07:04:37.168Z,3.34
2023-02-11T07:07:05.161Z,3.29
2023-02-11T07:09:32.818Z,3.20
2023-02-11T07:12:00.771Z,3.10
2023-02-11T07:14:29.859Z,3.03
2023-02-11T07:16:57.826Z,3.19
2023-02-11T07:19:25.477Z,3.45
2023-02-11T07:21:53.745Z,3.37
2023-02-11T07:24:21.170Z,3.37
2023-02-11T07:26:49.003Z,3.45
2023-02-11T07:29:16.511Z,3.42
2023-02-11T07:31:45.804Z,3.46
2023-02-11T07:34:13.441Z,3.48
2023-02-11T07:36:41.265Z,3.64
2023-02-11T07:39:08.778Z,3.75
2023-02-11T07:41:37.969Z,3.73
2023-02-11T07:44:06.295Z,3.78
2023-02-11T07:46:34.321Z,3.87
2023-02-11T07:49:03.555Z,3.85
2023-02-11T07:51:31.868Z,3.80
2023-02-11T07:54:00.489Z,3.85
2023-02-11T07:56:29.012Z,3.94
2023-02-11T07:58:59.581Z,3.97
2023-02-11T08:01:28.180Z,3.99
2023-02-11T08:03:56.411Z,3.99
2023-02-11T08:06:27.682Z,4.05
2023-02-11T08:08:55.710Z,4.18
2023-02-11T08:11:25.515Z,4.30
2023-02-11T08:13:54.079Z,4.34
2023-02-11T08:16:24.585Z,4.44
2023-02-11T08:18:53.703Z,4.38
2023-02-11T08:21:22.057Z,4.53
2023-02-11T08:23:52.686Z,4.62
2023-02-11T08:26:23.396Z,4.59
2023-02-11T08:28:52.693Z,4.70
2023-02-11T08:31:23.263Z,4.72
2023-02-11T08:33:51.557Z,4.74
2023-02-11T08:36:22.209Z,4.67
2023-02-11T08:38:51.792Z,4.70
2023-02-11T08:41:20.131Z,4.70
2023-02-11T08:43:47.856Z,4.61
2023-02-11T08:46:19.716Z,4.72
2023-02-11T08:48:48.149Z,4.77
2023-02-11T08:51:17.889Z,4.78
2023-02-11T08:53:45.478Z,4.80
2023-02-11T08:56:15.667Z,4.86
2023-02-11T08:58:43.315Z,4.88
2023-02-11T09:01:12.430Z,4.91
2023-02-11T09:03:40.544Z,4.98
2023-02-11T09:06:10.534Z,5.04
2023-02-11T09:08:40.608Z,5.21
2023-02-11T09:11:09.628Z,5.29
2023-02-11T09:13:38.597Z,5.33
2023-02-11T09:16:08.082Z,5.24
2023-02-11T09:18:35.702Z,5.24
2023-02-11T09:21:04.817Z,5.27
2023-02-11T09:23:33.209Z,5.22
2023-02-11T09:26:08.146Z,5.29
2023-02-11T09:28:38.551Z,5.41
2023-02-11T09:31:07.365Z,5.64
2023-02-11T09:33:35.252Z,5.71
2023-02-11T09:36:04.561Z,5.75
2023-02-11T09:38:32.602Z,5.92
2023-02-11T09:41:00.598Z,5.88
2023-02-11T09:43:33.881Z,5.92
2023-02-11T09:46:05.252Z,5.94
2023-02-11T09:48:40.345Z,6.06
2023-02-11T09:51:19.530Z,6.17
2023-02-11T09:53:54.753Z,6.18
2023-02-11T09:56:24.536Z,6.23
2023-02-11T09:58:52.117Z,6.33
2023-02-11T10:01:30.847Z,6.38
2023-02-11T10:04:04.815Z,6.30
2023-02-11T10:06:39.908Z,6.27
2023-02-11T10:09:28.456Z,6.33
2023-02-11T10:12:11.951Z,6.32
2023-02-11T10:15:04.279Z,6.35
2023-02-11T10:17:42.847Z,6.39
2023-02-11T10:20:23.596Z,6.24
2023-02-11T10:22:54.592Z,6.21
2023-02-11T10:25:23.956Z,6.15
2023-02-11T10:27:55.065Z,6.11
2023-02-11T10:30:29.023Z,6.22
2023-02-11T10:33:04.056Z,6.29
2023-02-11T10:35:32.769Z,6.32
2023-02-11T10:38:01.392Z,6.34
2023-02-11T10:40:31.094Z,6.31
2023-02-11T10:43:03.850Z,6.31
2023-02-11T10:45:34.735Z,6.40
2023-02-11T10:48:26.701Z,6.40
2023-02-11T10:51:08.460Z,6.27
2023-02-11T10:53:36.947Z,6.33
2023-02-11T10:56:06.318Z,6.29
2023-02-11T10:58:40.782Z,6.26
2023-02-11T11:01:23.515Z,6.30
2023-02-11T11:03:53.065Z,6.32
2023-02-11T11:06:32.212Z,6.23
2023-02-11T11:09:00.187Z,6.16
2023-02-11T11:11:27.622Z,6.09
2023-02-11T11:13:57.772Z,6.17
2023-02-11T11:16:27.571Z,6.06
2023-02-11T11:19:15.363Z,6.14
2023-02-11T11:21:46.431Z,6.11
2023-02-11T11:24:19.852Z,6.14
2023-02-11T11:26:51.582Z,6.14
2023-02-11T11:29:24.308Z,6.10
2023-02-11T11:31:55.236Z,6.20
2023-02-11T11:34:28.950Z,6.24
2023-02-11T11:36:59.670Z,6.49
2023-02-11T11:39:31.298Z,6.47
2023-02-11T11:42:00.599Z,6.40
2023-02-11T11:44:31.828Z,6.42
2023-02-11T11:47:20.612Z,6.38
2023-02-11T11:49:55.840Z,6.47
2023-02-11T11:52:35.854Z,6.43
2023-02-11T11:55:13.415Z,6.59
2023-02-11T11:57:41.372Z,6.58
2023-02-11T12:00:16.977Z,6.58
2023-02-11T12:03:12.331Z,6.52
2023-02-11T12:05:51.095Z,6.58
2023-02-11T12:08:26.945Z,6.55
2023-02-11T12:11:07.119Z,6.54
2023-02-11T12:13:44.075Z,6.59
2023-02-11T12:16:25.227Z,6.53
2023-02-11T12:19:24.810Z,6.62
2023-02-11T12:22:01.520Z,6.59
2023-02-11T12:24:46.175Z,6.66
2023-02-11T12:27:23.144Z,6.67
2023-02-11T12:30:03.947Z,6.62
2023-02-11T12:32:44.557Z,6.61
2023-02-11T12:35:31.137Z,6.63
2023-02-11T12:38:15.861Z,6.62
2023-02-11T12:41:00.604Z,6.61
2023-02-11T12:43:36.074Z,6.56
2023-02-11T12:46:31.822Z,6.50
2023-02-11T12:49:27.304Z,6.42
2023-02-11T12:52:07.311Z,6.48
2023-02-11T12:54:40.330Z,6.34
2023-02-11T12:57:18.752Z,6.56
2023-02-11T12:59:53.706Z,6.63
2023-02-11T13:02:28.369Z,6.64
2023-02-11T13:05:00.104Z,6.58
2023-02-11T13:07:33.438Z,6.60
2023-02-11T13:10:05.936Z,6.73
2023-02-11T13:12:36.932Z,6.72
2023-02-11T13:15:07.909Z,6.70
2023-02-11T13:17:43.531Z,6.67
2023-02-11T13:20:24.104Z,6.59
2023-02-11T13:22:59.458Z,6.73
2023-02-11T13:25:36.159Z,6.69
2023-02-11T13:28:17.828Z,6.74
2023-02-11T13:30:47.202Z,6.87
2023-02-11T13:33:31.427Z,6.82
2023-02-11T13:36:15.687Z,6.74
2023-02-11T13:38:53.985Z,6.71
2023-02-11T13:41:27.914Z,6.65
2023-02-11T13:44:02.575Z,6.56
2023-02-11T13:46:49.325Z,6.70
2023-02-11T13:49:22.587Z,6.70
2023-02-11T13:51:51.915Z,6.71
2023-02-11T13:54:32.753Z,6.70
2023-02-11T13:57:34.386Z,6.70
2023-02-11T14:00:20.307Z,6.58
2023-02-11T14:03:37.998Z,6.60
2023-02-11T14:06:14.316Z,6.42
2023-02-11T14:09:02.611Z,6.37
2023-02-11T14:11:50.202Z,6.42
2023-02-11T14:14:23.464Z,6.45
2023-02-11T14:17:34.868Z,6.52
2023-02-11T14:20:24.146Z,6.47
2023-02-11T14:22:53.344Z,6.39
2023-02-11T14:25:24.862Z,6.35
2023-02-11T14:27:57.532Z,6.29
2023-02-11T14:30:46.276Z,6.36
2023-02-11T14:33:43.816Z,6.25
2023-02-11T14:36:30.016Z,6.23
2023-02-11T14:39:07.733Z,6.17
2023-02-11T14:41:41.904Z,6.26
2023-02-11T14:44:15.230Z,6.25
2023-02-11T14:46:46.322Z,6.20
2023-02-11T14:49:24.198Z,6.13
2023-02-11T14:51:54.489Z,6.00
2023-02-11T14:54:24.972Z,6.07
2023-02-11T14:57:13.343Z,6.11
2023-02-11T14:59:52.434Z,6.12
2023-02-11T15:02:23.124Z,6.08
2023-02-11T15:04:52.337Z,5.99
2023-02-11T15:07:20.684Z,6.01
2023-02-11T15:09:51.315Z,6.06
2023-02-11T15:12:23.727Z,6.06
2023-02-11T15:14:54.838Z,6.13
2023-02-11T15:17:26.200Z,6.05
2023-02-11T15:19:59.631Z,5.95
2023-02-11T15:22:32.441Z,5.97
2023-02-11T15:25:02.198Z,5.95
2023-02-11T15:27:39.833Z,6.02
2023-02-11T15:30:24.681Z,5.89
2023-02-11T15:32:55.304Z,5.83
2023-02-11T15:35:25.090Z,5.80
2023-02-11T15:37:53.088Z,5.71
2023-02-11T15:40:24.584Z,5.86
2023-02-11T15:42:59.515Z,6.01
2023-02-11T15:45:30.845Z,5.87
2023-02-11T15:48:07.092Z,5.86
2023-02-11T15:50:38.340Z,5.82
2023-02-11T15:53:27.001Z,5.84
2023-02-11T15:56:00.970Z,5.74
2023-02-11T15:58:29.397Z,5.58
2023-02-11T16:00:57.250Z,5.54
2023-02-11T16:03:27.599Z,5.47
2023-02-11T16:05:56.755Z,5.50
2023-02-11T16:08:26.901Z,5.51
2023-02-11T16:10:56.395Z,5.49
2023-02-11T16:13:25.666Z,5.43
2023-02-11T16:15:55.760Z,5.45
2023-02-11T16:18:37.941Z,5.51
2023-02-11T16:21:14.659Z,5.66
2023-02-11T16:23:49.107Z,5.55
2023-02-11T16:26:24.966Z,5.44
2023-02-11T16:28:53.255Z,5.45
2023-02-11T16:31:21.193Z,5.40
2023-02-11T16:33:49.243Z,5.39
2023-02-11T16:36:18.517Z,5.32
2023-02-11T16:38:46.604Z,5.45
2023-02-11T16:41:14.276Z,5.45
2023-02-11T16:43:42.292Z,5.51
2023-02-11T16:46:14.757Z,5.46
2023-02-11T16:48:43.056Z,5.39
2023-02-11T16:51:12.341Z,5.49
2023-02-11T16:53:41.973Z,5.42
2023-02-11T16:56:14.984Z,5.48
2023-02-11T16:58:43.142Z,5.46
2023-02-11T17:01:13.752Z,5.39
2023-02-11T17:03:42.286Z,5.37
2023-02-11T17:06:11.039Z,5.49
2023-02-11T17:08:39.038Z,5.46
2023-02-11T17:11:08.246Z,5.48
2023-02-11T17:13:36.228Z,5.63
2023-02-11T17:16:03.970Z,5.60
2023-02-11T17:18:31.964Z,5.54
2023-02-11T17:20:59.578Z,5.57
2023-02-11T17:23:27.630Z,5.65
2023-02-11T17:25:56.287Z,5.61
2023-02-11T17:28:25.736Z,5.51
2023-02-11T17:30:53.326Z,5.52
2023-02-11T17:33:21.678Z,5.64
2023-02-11T17:35:49.428Z,5.67
2023-02-11T17:38:17.570Z,5.77
2023-02-11T17:40:45.098Z,5.72
2023-02-11T17:43:13.082Z,5.81
2023-02-11T17:45:42.951Z,5.68
2023-02-11T17:48:11.055Z,5.66
2023-02-11T17:50:38.703Z,5.60
2023-02-11T17:53:06.868Z,5.81
2023-02-11T17:55:35.276Z,5.99
2023-02-11T17:58:03.567Z,6.15
2023-02-11T18:00:31.454Z,6.09
2023-02-11T18:03:00.983Z,6.00
2023-02-11T18:05:29.018Z,6.01
2023-02-11T18:07:57.000Z,6.01
2023-02-11T18:10:24.570Z,5.93
2023-02-11T18:12:52.727Z,5.78
2023-02-11T18:15:20.231Z,5.71
2023-02-11T18:17:48.304Z,5.68
2023-02-11T18:20:17.851Z,5.80
2023-02-11T18:22:45.832Z,5.76
2023-02-11T18:25:14.690Z,5.78
2023-02-11T18:27:43.020Z,5.70
2023-02-11T18:30:15.880Z,5.64
2023-02-11T18:32:43.881Z,5.76
2023-02-11T18:35:14.842Z,5.80
2023-02-11T18:37:44.769Z,5.78
2023-02-11T18:40:13.780Z,5.67
2023-02-11T18:42:41.793Z,5.73
2023-02-11T18:45:12.631Z,5.75
2023-02-11T18:47:41.099Z,5.83
2023-02-11T18:50:10.509Z,5.79
2023-02-11T18:52:38.629Z,5.87
2023-02-11T18:55:09.192Z,5.73
2023-02-11T18:57:37.388Z,5.78
2023-02-11T19:00:05.918Z,5.75
2023-02-11T19:02:34.730Z,5.70
2023-02-11T19:05:02.502Z,5.79
2023-02-11T19:07:30.789Z,5.80
2023-02-11T19:09:58.456Z,5.68
2023-02-11T19:12:28.267Z,5.69
2023-02-11T19:14:55.968Z,5.68
2023-02-11T19:17:24.035Z,5.68
2023-02-11T19:19:51.718Z,5.67
2023-02-11T19:22:19.691Z,5.72
2023-02-11T19:24:47.470Z,5.71
2023-02-11T19:27:15.474Z,5.69
2023-02-11T19:29:44.681Z,5.68
2023-02-11T19:32:12.729Z,5.68
2023-02-11T19:34:40.543Z,5.66
2023-02-11T19:37:08.923Z,5.68
2023-02-11T19:39:36.743Z,5.61
2023-02-11T19:42:05.014Z,5.52
2023-02-11T19:44:32.699Z,5.60
2023-02-11T19:47:02.323Z,5.65
2023-02-11T19:49:30.039Z,5.67
2023-02-11T19:51:58.045Z,5.75
2023-02-11T19:54:28.703Z,5.72
2023-02-11T19:56:57.235Z,5.71
2023-02-11T19:59:25.315Z,5.70
2023-02-11T20:01:53.324Z,5.70
2023-02-11T20:04:22.332Z,5.73
2023-02-11T20:06:50.337Z,5.78
2023-02-11T20:09:18.197Z,5.83
2023-02-11T20:11:46.632Z,5.85
2023-02-11T20:14:14.705Z,5.86
2023-02-11T20:16:48.583Z,5.75
2023-02-11T20:19:19.547Z,5.89
2023-02-11T20:21:51.757Z,5.79
2023-02-11T20:24:20.488Z,5.80
2023-02-11T20:26:49.333Z,5.72
2023-02-11T20:29:18.068Z,5.67
2023-02-11T20:31:46.370Z,5.71
2023-02-11T20:34:14.390Z,5.83
2023-02-11T20:36:42.548Z,5.78
2023-02-11T20:39:12.218Z,5.81
2023-02-11T20:41:40.189Z,5.78
2023-02-11T20:44:10.368Z,5.76
2023-02-11T20:46:39.887Z,5.74
2023-02-11T20:49:07.959Z,5.70
2023-02-11T20:51:36.260Z,5.77
2023-02-11T20:54:04.220Z,5.88
2023-02-11T20:56:36.780Z,5.93
2023-02-11T20:59:05.387Z,5.87
2023-02-11T21:01:35.711Z,5.94
2023-02-11T21:04:05.389Z,5.91
2023-02-11T21:06:36.590Z,6.02
2023-02-11T21:09:06.627Z,5.94
2023-02-11T21:11:36.268Z,5.90
2023-02-11T21:14:04.088Z,5.94
2023-02-11T21:16:32.742Z,5.97
2023-02-11T21:19:01.097Z,5.99
2023-02-11T21:21:30.140Z,5.97
2023-02-11T21:23:58.381Z,5.96
2023-02-11T21:29:10.828Z,5.99
2023-02-11T21:31:39.995Z,6.00
2023-02-11T21:34:08.916Z,6.03
2023-02-11T21:36:38.295Z,6.08
2023-02-11T21:39:05.841Z,6.00
2023-02-11T21:41:35.115Z,6.02
2023-02-11T21:44:05.754Z,6.14
2023-02-11T21:46:40.589Z,6.26
2023-02-11T21:49:08.623Z,6.30
2023-02-11T21:51:37.121Z,6.24
2023-02-11T21:54:05.158Z,6.15
2023-02-11T21:56:33.255Z,6.27
2023-02-11T21:59:00.839Z,6.32
2023-02-11T22:01:31.079Z,6.47
2023-02-11T22:04:01.684Z,6.43
2023-02-11T22:06:33.364Z,6.43
2023-02-11T22:09:03.208Z,6.38
2023-02-11T22:11:31.535Z,6.29
2023-02-11T22:13:59.477Z,6.14
2023-02-11T22:16:28.728Z,6.24
2023-02-11T22:18:57.221Z,6.23
2023-02-11T22:21:27.155Z,6.37
2023-02-11T22:23:56.069Z,6.39
2023-02-11T22:26:26.470Z,6.26
2023-02-11T22:28:54.775Z,6.32
2023-02-11T22:31:25.065Z,6.33
2023-02-11T22:33:52.837Z,6.28
2023-02-11T22:36:23.265Z,6.18
2023-02-11T22:38:53.192Z,6.12
2023-02-11T22:41:22.931Z,6.18
2023-02-11T22:43:50.676Z,6.20
2023-02-11T22:46:20.060Z,6.12
2023-02-11T22:48:48.502Z,6.12
2023-02-11T22:51:18.631Z,6.13
2023-02-11T22:53:51.445Z,6.13
2023-02-11T22:56:20.001Z,6.26
2023-02-11T22:58:48.094Z,6.28
2023-02-11T23:01:16.113Z,6.23
2023-02-11T23:03:44.174Z,6.22
2023-02-11T23:06:12.386Z,6.07
2023-02-11T23:08:41.105Z,6.17
2023-02-11T23:11:13.679Z,6.25
2023-02-11T23:13:42.402Z,6.11
2023-02-11T23:16:11.942Z,6.13
2023-02-11T23:18:41.972Z,6.17
2023-02-11T23:21:12.854Z,6.24
2023-02-11T23:23:40.475Z,6.23
2023-02-11T23:26:11.626Z,6.08
2023-02-11T23:28:39.866Z,6.06
2023-02-11T23:31:16.799Z,6.19
2023-02-11T23:33:44.575Z,6.23
2023-02-11T23:36:13.283Z,6.21
2023-02-11T23:38:40.802Z,6.23
2023-02-11T23:41:10.345Z,6.25
2023-02-11T23:43:38.087Z,6.19
2023-02-11T23:46:07.284Z,6.10
2023-02-11T23:48:34.788Z,6.22
2023-02-11T23:51:02.831Z,6.30
2023-02-11T23:53:30.330Z,6.36
2023-02-11T23:55:58.483Z,6.36
2023-02-11T23:58:27.517Z,6.21
